Decoded Metar for LFLY (LYON BRON in FRANCE) (IATA:LYN) | Meteo·Mobile Aviation Weather
aviador You're here:

LFLY Decoded Metar

LYON BRON in FRANCE
Report Time2019-02-17 19:30:00
UTC Time2019-02-17 19:54:34
Flight Rules vfr VFR
Wind120° at 08 kt
W.Decomp.*RWY 16: 6.1 kt HW 5.1 kt LCW
W.Rank120° ranks 19
Current wind is above 120° avg. (3.7)
Visibility9999 m
Phenomena:N/A
Clouds:N/A
Expected CloudBase > 3,600 ft AGL from Temp-Dew spread
CeilingNone
Temp11°C (ISA -3)
Dew Point02°C (54% RH)
AAT6.5°C
QNH1023 hPa
Density Alt102 ft
Elevation659 ft
Report Wrong Elevation
Raw Report
LFLY 171930Z AUTO 12008KT CAVOK 11/02 Q1023 NOSIG=

Extra information for LFLY:More info

Metar Taf Metar & Taf Last 4 Metars F.Rules Stats Wind Profile Meteogram Temp Stats Airport Information Weather charts Add Link Nearby VenuesMetar ALERT Operation Metar Decoded Social comments